Time;durP1;ratioP1;P1;durP2;ratioP2;P2;SDS_P1;SDS_P2;PMS_P1;PMS_P2;Temp;Humidity;BMP_temperature;BMP_pressure;BME280_temperature;BME280_humidity;BME280_pressure;Samples;Min_cycle;Max_cycle;Signal;HPM_P1;HPM_P2
2023/08/28 00:01:06;;;;;;;6.40;5.77;;;;;;;13.42;86.24;100849.66;5033767;28;20535;-69
2023/08/28 00:03:33;;;;;;;7.13;6.60;;;;;;;13.56;86.09;100846.31;5034344;28;20531;-68
2023/08/28 00:06:00;;;;;;;6.53;6.07;;;;;;;13.52;85.69;100853.03;5033989;28;20188;-68
2023/08/28 00:08:26;;;;;;;13.20;6.90;;;;;;;13.75;84.96;100850.50;5033760;28;20215;-68
2023/08/28 00:10:56;;;;;;;8.83;6.20;;;;;;;13.94;82.65;100850.16;5033439;28;20180;-68
2023/08/28 00:13:22;;;;;;;5.87;5.57;;;;;;;13.98;83.13;100855.00;5033596;28;20195;-68
2023/08/28 00:15:49;;;;;;;6.90;6.27;;;;;;;13.95;83.07;100855.38;5034130;28;20181;-68
2023/08/28 00:18:15;;;;;;;6.47;5.97;;;;;;;14.07;82.09;100851.31;5033981;28;20254;-68
2023/08/28 00:20:42;;;;;;;8.67;5.60;;;;;;;14.09;81.51;100849.25;5034063;28;20184;-68
2023/08/28 00:23:09;;;;;;;5.80;5.17;;;;;;;14.06;81.90;100854.16;5033954;28;20199;-68
2023/08/28 00:25:36;;;;;;;5.33;5.10;;;;;;;13.96;82.13;100854.31;5033438;28;20188;-68
2023/08/28 00:28:02;;;;;;;9.60;5.90;;;;;;;13.89;82.31;100847.13;5033651;28;20674;-68
2023/08/28 00:30:29;;;;;;;6.50;6.10;;;;;;;13.81;82.56;100850.66;5032262;28;20196;-68
2023/08/28 00:32:55;;;;;;;6.17;5.77;;;;;;;13.77;83.04;100852.00;5033352;28;20196;-68
2023/08/28 00:35:22;;;;;;;5.97;5.87;;;;;;;13.70;83.37;100851.03;5032078;28;20287;-68
2023/08/28 00:37:48;;;;;;;6.17;5.90;;;;;;;13.59;83.89;100854.88;5032159;28;20216;-69
2023/08/28 00:40:16;;;;;;;9.37;7.07;;;;;;;13.64;83.53;100855.22;5031948;28;20647;-69
2023/08/28 00:42:42;;;;;;;7.00;6.53;;;;;;;13.62;83.87;100849.16;5031943;28;20290;-68
2023/08/28 00:45:10;;;;;;;6.63;6.33;;;;;;;13.53;83.84;100854.72;5031920;28;20184;-68
2023/08/28 00:47:38;;;;;;;6.80;6.33;;;;;;;13.48;84.15;100857.91;5031776;28;20203;-69
2023/08/28 00:50:05;;;;;;;7.33;6.77;;;;;;;13.52;84.25;100855.72;5031879;28;20191;-69
2023/08/28 00:52:32;;;;;;;7.00;6.43;;;;;;;13.46;84.20;100859.91;5031798;28;20647;-68
2023/08/28 00:54:59;;;;;;;7.47;7.03;;;;;;;13.48;83.69;100849.00;5031717;28;20687;-69
2023/08/28 00:57:28;;;;;;;7.33;6.93;;;;;;;13.36;83.83;100843.13;5031682;28;20196;-69
2023/08/28 00:59:55;;;;;;;7.33;7.07;;;;;;;13.27;84.62;100838.75;5032014;28;20192;-69
2023/08/28 01:02:22;;;;;;;6.27;6.07;;;;;;;13.22;84.79;100833.03;5031991;28;20202;-69
2023/08/28 01:04:51;;;;;;;7.40;6.60;;;;;;;13.18;85.29;100835.22;5031969;28;20564;-69
2023/08/28 01:07:25;;;;;;;7.57;6.87;;;;;;;13.23;85.32;100840.94;5031675;28;20680;-69
2023/08/28 01:10:07;;;;;;;6.53;6.23;;;;;;;13.08;85.73;100841.69;5031727;28;20187;-68
2023/08/28 01:12:43;;;;;;;6.43;6.20;;;;;;;13.02;86.08;100843.22;5033216;28;20195;-68
2023/08/28 01:15:20;;;;;;;5.17;5.07;;;;;;;12.98;86.24;100849.91;5031539;28;20268;-68
2023/08/28 01:17:50;;;;;;;6.57;6.23;;;;;;;12.93;86.09;100846.03;5033071;28;20768;-69
2023/08/28 01:20:17;;;;;;;7.43;7.07;;;;;;;12.90;86.21;100844.50;5032395;28;20180;-69
2023/08/28 01:22:57;;;;;;;5.83;5.53;;;;;;;12.89;86.51;100847.38;5035532;28;20257;-69
2023/08/28 01:25:24;;;;;;;7.07;6.13;;;;;;;12.84;86.51;100845.16;5035504;28;20199;-69
2023/08/28 01:27:52;;;;;;;6.67;6.47;;;;;;;12.81;86.37;100840.94;5036595;28;20208;-69
2023/08/28 01:30:20;;;;;;;7.57;7.30;;;;;;;12.80;86.52;100839.28;5035331;28;20558;-69
2023/08/28 01:32:46;;;;;;;6.97;6.47;;;;;;;12.81;86.31;100834.78;5035285;28;20681;-69
2023/08/28 01:35:19;;;;;;;6.90;6.70;;;;;;;12.93;86.20;100829.94;5036711;28;20212;-69
2023/08/28 01:38:19;;;;;;;7.83;7.03;;;;;;;12.96;85.64;100833.13;5035198;28;20278;-69
2023/08/28 01:41:03;;;;;;;7.10;6.63;;;;;;;13.00;85.46;100833.63;5036987;28;20176;-69
2023/08/28 01:43:35;;;;;;;7.03;6.47;;;;;;;12.95;85.19;100830.59;5035142;28;20192;-69
2023/08/28 01:46:02;;;;;;;7.50;6.90;;;;;;;12.89;85.93;100834.78;5035092;28;20184;-69
2023/08/28 01:48:34;;;;;;;6.60;6.50;;;;;;;12.83;86.24;100833.59;5034869;28;20749;-69
2023/08/28 01:51:01;;;;;;;7.10;6.80;;;;;;;12.76;86.55;100831.72;5034983;28;20198;-69
2023/08/28 01:53:27;;;;;;;6.37;5.83;;;;;;;12.70;86.73;100835.06;5034911;28;20811;-69
2023/08/28 01:56:09;;;;;;;5.60;5.50;;;;;;;12.66;86.82;100836.38;5036326;28;20208;-69
2023/08/28 01:58:47;;;;;;;5.10;5.00;;;;;;;12.61;86.81;100833.34;5034801;28;20216;-69
2023/08/28 02:01:14;;;;;;;4.90;4.80;;;;;;;12.54;86.70;100837.69;5035412;28;20187;-69
2023/08/28 02:03:41;;;;;;;6.80;6.40;;;;;;;12.51;86.85;100840.69;5034758;28;20279;-69
2023/08/28 02:06:08;;;;;;;5.87;5.67;;;;;;;12.47;87.16;100828.63;5036235;28;20175;-69
2023/08/28 02:08:35;;;;;;;8.27;7.77;;;;;;;12.41;86.98;100830.09;5034578;28;20629;-69
2023/08/28 02:11:03;;;;;;;8.47;8.00;;;;;;;12.38;87.10;100825.06;5034595;28;20202;-69
2023/08/28 02:13:29;;;;;;;7.87;7.57;;;;;;;12.44;87.00;100828.91;5034611;28;20207;-69
2023/08/28 02:15:56;;;;;;;6.57;6.37;;;;;;;12.41;87.16;100826.56;5035700;28;20207;-69
2023/08/28 02:18:23;;;;;;;6.37;5.80;;;;;;;12.36;87.41;100835.09;5035941;28;20208;-69
2023/08/28 02:20:50;;;;;;;7.50;6.93;;;;;;;12.35;87.49;100838.75;5035408;28;20203;-69
2023/08/28 02:23:16;;;;;;;4.97;4.80;;;;;;;12.33;87.64;100832.72;5034353;28;20588;-69
2023/08/28 02:25:44;;;;;;;6.00;5.90;;;;;;;12.36;87.81;100829.72;5035610;28;20188;-69
2023/08/28 02:28:11;;;;;;;9.00;6.43;;;;;;;12.31;87.50;100824.00;5035494;28;20200;-69
2023/08/28 02:30:37;;;;;;;5.77;5.67;;;;;;;12.30;87.68;100825.03;5036050;28;20191;-68
2023/08/28 02:33:04;;;;;;;7.43;7.10;;;;;;;12.28;87.49;100824.31;5034413;28;20241;-68
2023/08/28 02:35:31;;;;;;;6.43;6.13;;;;;;;12.27;87.59;100814.59;5035884;28;20228;-68
2023/08/28 02:37:57;;;;;;;5.60;5.40;;;;;;;12.24;87.71;100809.56;5035857;28;20211;-69
2023/08/28 02:40:24;;;;;;;5.43;5.30;;;;;;;12.24;87.95;100817.59;5034626;28;20278;-69
2023/08/28 02:42:51;;;;;;;6.50;5.90;;;;;;;12.21;87.62;100820.63;5033975;28;20656;-68
2023/08/28 02:45:19;;;;;;;5.70;5.43;;;;;;;12.14;87.41;100830.28;5033975;28;20219;-68
2023/08/28 02:47:45;;;;;;;7.13;6.63;;;;;;;12.06;87.38;100832.91;5035081;28;20204;-68
2023/08/28 02:54:24;;;;;;;8.00;7.67;;;;;;;12.02;87.59;100828.88;5035592;28;20259;-68
2023/08/28 02:56:50;;;;;;;9.80;8.10;;;;;;;11.99;87.72;100831.88;5033766;28;20223;-68
2023/08/28 02:59:17;;;;;;;8.60;7.63;;;;;;;12.00;87.91;100845.13;5033610;28;20755;-69
2023/08/28 03:01:44;;;;;;;5.83;5.70;;;;;;;12.01;87.77;100848.66;5033641;28;20741;-68
2023/08/28 03:04:11;;;;;;;4.47;4.37;;;;;;;11.99;88.08;100851.47;5034820;28;20564;-68
2023/08/28 03:06:37;;;;;;;5.93;5.37;;;;;;;12.00;88.17;100850.47;5034938;28;20621;-68
2023/08/28 03:09:07;;;;;;;5.27;5.17;;;;;;;11.97;88.01;100852.59;5033728;28;20262;-68
2023/08/28 03:11:35;;;;;;;6.93;6.27;;;;;;;11.98;88.06;100852.47;5034733;28;20184;-68
2023/08/28 03:14:03;;;;;;;6.50;6.20;;;;;;;11.94;87.78;100864.50;5033546;28;20198;-68
2023/08/28 03:16:30;;;;;;;6.97;6.87;;;;;;;11.87;87.98;100868.81;5033282;28;20218;-68
2023/08/28 03:18:57;;;;;;;5.27;5.17;;;;;;;11.84;87.88;100864.59;5034679;28;20204;-68
2023/08/28 03:21:23;;;;;;;8.83;8.20;;;;;;;11.84;88.14;100866.41;5033290;28;20203;-68
2023/08/28 03:23:51;;;;;;;7.47;7.27;;;;;;;11.87;88.10;100877.69;5034463;28;20258;-68
2023/08/28 03:26:17;;;;;;;7.40;6.83;;;;;;;11.88;88.31;100878.53;5034373;28;20678;-68
2023/08/28 03:28:44;;;;;;;7.37;7.13;;;;;;;11.90;88.22;100876.53;5033058;28;20212;-68
2023/08/28 03:31:10;;;;;;;7.90;7.53;;;;;;;11.93;88.35;100897.63;5034497;28;20190;-68
2023/08/28 03:33:37;;;;;;;8.43;8.03;;;;;;;11.97;88.55;100893.63;5034305;28;20618;-68
2023/08/28 03:36:04;;;;;;;9.40;8.90;;;;;;;12.02;88.75;100890.50;5034696;28;20200;-68
2023/08/28 03:38:31;;;;;;;8.50;8.30;;;;;;;12.04;88.66;100881.31;5033055;28;20219;-69
2023/08/28 03:40:57;;;;;;;7.97;7.77;;;;;;;12.10;88.71;100893.22;5034144;28;20184;-68
2023/08/28 03:43:24;;;;;;;8.57;8.27;;;;;;;12.12;88.59;100893.94;5032625;28;20242;-68
2023/08/28 03:45:50;;;;;;;8.23;7.87;;;;;;;12.09;88.71;100896.94;5032867;28;20184;-68
2023/08/28 03:48:19;;;;;;;7.93;7.57;;;;;;;12.12;88.67;100891.25;5032721;28;20215;-69
2023/08/28 03:50:46;;;;;;;9.17;8.57;;;;;;;12.13;88.93;100895.63;5032697;28;20199;-69
2023/08/28 03:53:13;;;;;;;8.20;7.67;;;;;;;12.16;89.14;100881.88;5032733;28;20183;-69
2023/08/28 03:55:39;;;;;;;8.63;8.13;;;;;;;12.19;88.92;100881.56;5032571;28;20642;-69
2023/08/28 03:58:07;;;;;;;9.53;8.70;;;;;;;12.20;88.90;100883.25;5032798;28;20215;-69
2023/08/28 04:00:34;;;;;;;9.03;8.60;;;;;;;12.23;88.84;100888.28;5033788;28;20651;-69
2023/08/28 04:03:00;;;;;;;9.23;8.87;;;;;;;12.20;88.71;100885.94;5032528;28;20225;-68
2023/08/28 04:05:32;;;;;;;7.00;6.70;;;;;;;12.10;88.87;100886.03;5032743;28;20630;-68
2023/08/28 04:08:00;;;;;;;6.80;6.70;;;;;;;12.02;88.56;100885.97;5033210;28;20216;-69
2023/08/28 04:10:26;;;;;;;9.90;9.50;;;;;;;11.98;88.91;100884.63;5033916;28;20187;-69
2023/08/28 04:12:53;;;;;;;7.23;6.77;;;;;;;11.96;88.77;100881.25;5032151;28;20204;-69
2023/08/28 04:15:19;;;;;;;10.23;8.60;;;;;;;11.93;88.29;100886.91;5032214;28;20354;-69
2023/08/28 04:17:46;;;;;;;8.13;7.67;;;;;;;11.87;88.60;100877.69;5032287;28;20620;-69
2023/08/28 04:20:15;;;;;;;7.67;7.47;;;;;;;11.86;88.39;100880.50;5034044;28;20208;-69
2023/08/28 04:22:43;;;;;;;8.37;8.07;;;;;;;11.85;88.65;100879.66;5032124;28;20198;-69
2023/08/28 04:25:12;;;;;;;8.50;8.23;;;;;;;11.81;88.48;100872.94;5032159;28;20257;-68
2023/08/28 04:27:40;;;;;;;9.37;8.87;;;;;;;11.77;87.99;100882.28;5033869;28;20226;-68
2023/08/28 04:30:08;;;;;;;9.50;8.90;;;;;;;11.71;88.10;100887.41;5032095;28;20250;-68
2023/08/28 04:32:35;;;;;;;8.93;8.33;;;;;;;11.70;88.52;100883.88;5032058;28;20188;-68
2023/08/28 04:35:02;;;;;;;8.33;8.00;;;;;;;11.69;87.98;100878.66;5031949;28;20237;-68
2023/08/28 04:37:30;;;;;;;9.43;9.07;;;;;;;11.61;88.30;100867.88;5031951;28;20196;-69
2023/08/28 04:39:56;;;;;;;9.03;8.53;;;;;;;11.57;88.59;100875.41;5031951;28;20199;-69
2023/08/28 04:42:24;;;;;;;9.13;8.73;;;;;;;11.54;88.57;100873.03;5033188;28;20195;-69
2023/08/28 04:44:50;;;;;;;13.20;10.57;;;;;;;11.57;88.96;100867.38;5033426;28;20180;-69
2023/08/28 04:47:17;;;;;;;11.37;10.57;;;;;;;11.72;88.69;100868.50;5031863;28;20699;-69
2023/08/28 04:49:43;;;;;;;11.53;10.83;;;;;;;11.75;88.74;100870.88;5031794;28;20219;-68
2023/08/28 04:52:10;;;;;;;10.53;9.87;;;;;;;11.74;89.04;100874.56;5031800;28;20265;-68
2023/08/28 04:54:37;;;;;;;10.53;9.73;;;;;;;11.76;89.02;100861.84;5031801;28;20648;-68
2023/08/28 04:57:03;;;;;;;10.60;9.80;;;;;;;11.72;89.27;100868.50;5035454;28;20263;-68
2023/08/28 04:59:30;;;;;;;9.80;8.97;;;;;;;11.71;89.27;100866.78;5037131;28;20219;-69
2023/08/28 05:01:56;;;;;;;10.40;9.83;;;;;;;11.71;89.47;100866.78;5037172;28;20214;-69
2023/08/28 05:04:22;;;;;;;9.13;8.53;;;;;;;11.72;89.50;100862.31;5037605;28;20192;-69
2023/08/28 05:06:49;;;;;;;9.13;8.63;;;;;;;11.75;89.47;100868.19;5035739;28;20195;-68
2023/08/28 05:09:15;;;;;;;7.93;7.67;;;;;;;11.78;89.88;100872.41;5035678;28;20215;-68
2023/08/28 05:11:42;;;;;;;8.40;8.03;;;;;;;11.82;89.69;100869.28;5035724;28;20199;-68
2023/08/28 05:14:09;;;;;;;9.60;9.17;;;;;;;11.86;89.86;100862.59;5036837;28;20196;-68
2023/08/28 05:16:35;;;;;;;12.17;9.70;;;;;;;11.91;89.93;100867.50;5035553;28;20208;-69
2023/08/28 05:19:01;;;;;;;13.03;11.80;;;;;;;11.99;89.86;100864.03;5035475;28;20231;-69
2023/08/28 05:21:28;;;;;;;12.07;11.17;;;;;;;12.04;89.64;100867.06;5036777;28;20184;-69
2023/08/28 05:23:55;;;;;;;12.60;11.60;;;;;;;12.11;89.72;100874.31;5037079;28;20195;-69
2023/08/28 05:26:21;;;;;;;13.30;12.03;;;;;;;12.12;89.60;100877.84;5035411;28;20213;-69
2023/08/28 05:28:51;;;;;;;11.00;9.97;;;;;;;12.10;89.69;100877.16;5035293;28;20212;-69
2023/08/28 05:31:18;;;;;;;11.83;11.20;;;;;;;12.13;89.91;100882.22;5035565;28;20192;-69
2023/08/28 05:33:45;;;;;;;21.00;12.67;;;;;;;12.20;89.45;100891.28;5035316;28;20195;-69
2023/08/28 05:36:13;;;;;;;12.77;11.90;;;;;;;12.25;89.23;100897.03;5018889;28;20207;-69
2023/08/28 05:38:39;;;;;;;13.53;12.33;;;;;;;12.28;89.56;100885.97;5035362;28;20220;-69
2023/08/28 05:41:06;;;;;;;13.70;12.27;;;;;;;12.26;89.39;100886.13;5035127;28;20591;-69
2023/08/28 05:43:32;;;;;;;13.30;12.10;;;;;;;12.30;89.49;100887.53;5035089;28;20192;-69
2023/08/28 05:45:59;;;;;;;11.20;10.40;;;;;;;12.31;89.57;100891.00;5035351;28;20677;-69
2023/08/28 05:48:26;;;;;;;13.27;12.23;;;;;;;12.31;89.75;100891.84;5035002;28;20636;-69
2023/08/28 05:50:52;;;;;;;11.67;10.67;;;;;;;12.35;89.99;100895.91;5035008;28;20196;-69
2023/08/28 05:53:20;;;;;;;14.23;12.97;;;;;;;12.48;89.62;100894.63;5034939;28;20199;-69
2023/08/28 05:55:47;;;;;;;17.50;12.17;;;;;;;12.52;89.63;100894.16;5034893;28;20211;-69
2023/08/28 05:58:13;;;;;;;13.23;12.17;;;;;;;12.59;89.85;100905.09;5034794;28;20571;-68
2023/08/28 06:00:42;;;;;;;10.43;9.60;;;;;;;12.68;90.04;100901.44;5035006;28;20209;-68
2023/08/28 06:03:08;;;;;;;13.20;12.30;;;;;;;12.77;89.88;100893.25;5034705;28;20614;-68
2023/08/28 06:05:35;;;;;;;13.37;12.03;;;;;;;12.92;89.72;100898.84;5034699;28;20188;-68
2023/08/28 06:08:02;;;;;;;12.57;11.37;;;;;;;12.94;90.00;100909.44;5036025;28;20691;-69
2023/08/28 06:10:29;;;;;;;13.27;12.37;;;;;;;13.00;89.78;100904.25;5035391;28;20200;-68
2023/08/28 06:12:57;;;;;;;12.70;11.57;;;;;;;13.11;89.69;100908.53;5036037;28;20261;-69
2023/08/28 06:15:25;;;;;;;13.40;12.30;;;;;;;13.17;89.54;100910.53;5034518;28;20204;-69
2023/08/28 06:17:51;;;;;;;15.57;12.67;;;;;;;13.31;88.72;100904.53;5035655;28;20214;-69
2023/08/28 06:20:18;;;;;;;13.93;12.43;;;;;;;13.31;88.80;100901.00;5034412;28;20195;-69
2023/08/28 06:22:44;;;;;;;15.60;13.73;;;;;;;13.36;88.75;100899.53;5035020;28;20667;-69
2023/08/28 06:25:11;;;;;;;15.47;12.90;;;;;;;13.58;87.37;100904.22;5034384;28;20237;-69
2023/08/28 06:27:38;;;;;;;15.87;12.90;;;;;;;13.61;87.26;100903.06;5035440;28;20246;-69
2023/08/28 06:30:06;;;;;;;14.47;13.37;;;;;;;13.65;87.68;100899.88;5034525;28;20184;-69
2023/08/28 06:32:33;;;;;;;13.63;12.33;;;;;;;13.63;87.82;100903.72;5034278;28;20196;-69
2023/08/28 06:35:00;;;;;;;12.80;11.83;;;;;;;13.64;88.11;100897.34;5035686;28;20210;-68
2023/08/28 06:37:27;;;;;;;17.57;12.83;;;;;;;13.76;87.97;100905.91;5035191;28;20695;-69
2023/08/28 06:39:54;;;;;;;16.77;12.33;;;;;;;13.78;87.97;100895.84;5035335;28;20192;-68
2023/08/28 06:42:20;;;;;;;11.67;10.67;;;;;;;13.84;88.33;100893.31;5035761;28;20551;-68
2023/08/28 06:44:49;;;;;;;15.63;11.97;;;;;;;13.94;87.95;100899.38;5035454;28;20615;-68
2023/08/28 06:47:16;;;;;;;15.47;11.17;;;;;;;13.99;88.14;100888.97;5035452;28;20234;-69
2023/08/28 06:49:42;;;;;;;12.50;11.40;;;;;;;14.10;88.19;100887.75;5035035;28;20300;-68
2023/08/28 06:52:09;;;;;;;17.43;13.27;;;;;;;14.26;86.85;100885.03;5035081;28;20267;-68
2023/08/28 06:54:36;;;;;;;14.87;13.47;;;;;;;14.44;85.69;100883.00;5035327;28;20192;-68
2023/08/28 06:57:07;;;;;;;15.33;14.20;;;;;;;14.41;85.61;100883.34;5035525;28;20553;-68
2023/08/28 06:59:33;;;;;;;17.07;13.10;;;;;;;14.48;85.16;100886.19;5034840;28;20266;-69
2023/08/28 07:02:00;;;;;;;25.83;14.00;;;;;;;14.50;84.95;100886.88;5035089;28;20681;-69
2023/08/28 07:04:27;;;;;;;14.57;13.13;;;;;;;14.55;84.84;100885.31;5034785;28;20196;-69
2023/08/28 07:06:53;;;;;;;19.87;14.83;;;;;;;14.50;84.45;100881.47;5034786;28;20207;-69
2023/08/28 07:09:20;;;;;;;21.70;15.10;;;;;;;14.45;84.51;100882.00;5034642;28;20623;-69
2023/08/28 07:11:46;;;;;;;16.33;14.47;;;;;;;14.43;84.84;100886.69;5034666;28;20199;-69
2023/08/28 07:14:13;;;;;;;20.87;13.67;;;;;;;14.50;85.13;100885.00;5034453;28;20196;-69
2023/08/28 07:16:40;;;;;;;23.47;15.33;;;;;;;14.54;84.36;100883.66;5034462;28;20211;-69
2023/08/28 07:19:07;;;;;;;18.30;14.17;;;;;;;14.56;84.59;100878.91;5033941;28;20298;-69
2023/08/28 07:21:33;;;;;;;15.80;14.40;;;;;;;14.59;84.25;100896.59;5034495;28;20188;-69
2023/08/28 07:24:00;;;;;;;19.63;14.23;;;;;;;14.63;84.32;100882.63;5034424;28;20192;-69
2023/08/28 07:26:26;;;;;;;15.20;13.70;;;;;;;14.61;84.72;100884.63;5035080;28;20181;-69
2023/08/28 07:28:53;;;;;;;23.03;15.00;;;;;;;14.63;84.66;100882.63;5034296;28;20211;-69
2023/08/28 07:31:19;;;;;;;24.97;14.70;;;;;;;14.69;84.71;100889.13;5034319;28;20203;-69
2023/08/28 07:33:46;;;;;;;20.83;14.87;;;;;;;14.70;84.52;100887.28;5034305;28;20192;-69
2023/08/28 07:36:12;;;;;;;16.77;14.50;;;;;;;14.79;84.98;100886.25;5034170;28;20694;-69
2023/08/28 07:38:42;;;;;;;16.57;14.03;;;;;;;14.96;84.12;100891.38;5034179;28;20257;-69
2023/08/28 07:41:08;;;;;;;18.13;13.70;;;;;;;14.96;84.44;100893.22;5034175;28;20192;-69
2023/08/28 07:43:35;;;;;;;27.37;14.57;;;;;;;14.99;83.96;100892.88;5034111;28;20242;-69
2023/08/28 07:46:01;;;;;;;25.20;14.63;;;;;;;15.07;83.85;100893.66;5034548;28;20188;-69
2023/08/28 07:48:27;;;;;;;22.33;14.20;;;;;;;15.13;83.92;100900.22;5034181;28;20717;-69
2023/08/28 07:50:54;;;;;;;19.17;13.93;;;;;;;15.12;83.87;100893.13;5034498;28;20207;-69
2023/08/28 07:53:21;;;;;;;15.57;13.60;;;;;;;15.25;83.51;100901.47;5034227;28;20195;-69
2023/08/28 07:55:48;;;;;;;15.17;12.97;;;;;;;15.24;83.97;100907.88;5033834;28;20254;-69
2023/08/28 07:58:14;;;;;;;15.13;13.63;;;;;;;15.33;84.25;100904.13;5033824;28;20212;-69
2023/08/28 08:00:42;;;;;;;19.90;12.60;;;;;;;15.39;83.72;100916.88;5033757;28;20192;-69
2023/08/28 08:03:09;;;;;;;15.00;12.30;;;;;;;15.35;84.50;100912.03;5033821;28;20187;-69
2023/08/28 08:05:35;;;;;;;16.93;13.77;;;;;;;15.46;82.83;100912.47;5034052;28;20555;-69
2023/08/28 08:08:03;;;;;;;17.33;12.27;;;;;;;15.52;83.30;100911.78;5033867;28;20636;-69
2023/08/28 08:10:30;;;;;;;17.17;13.77;;;;;;;15.59;83.03;100906.50;5033675;28;20721;-69
2023/08/28 08:12:56;;;;;;;16.00;13.17;;;;;;;15.60;82.61;100904.66;5033728;28;20249;-69
2023/08/28 08:15:23;;;;;;;17.13;13.00;;;;;;;15.58;82.89;100901.28;5033606;28;20249;-69
2023/08/28 08:17:49;;;;;;;13.40;12.10;;;;;;;15.67;82.75;100906.44;5033905;28;20216;-69
2023/08/28 08:20:16;;;;;;;20.13;13.00;;;;;;;15.72;82.67;100898.66;5033401;28;20192;-69
2023/08/28 08:22:43;;;;;;;14.73;12.47;;;;;;;15.71;82.59;100891.59;5033732;28;20184;-69
2023/08/28 08:25:10;;;;;;;17.07;11.97;;;;;;;15.82;82.63;100893.03;5033445;28;20188;-69
2023/08/28 08:27:38;;;;;;;14.00;12.20;;;;;;;15.76;82.55;100891.88;5033791;28;20191;-69
2023/08/28 08:30:08;;;;;;;15.67;12.97;;;;;;;15.90;82.04;100893.78;5032890;28;20245;-69
2023/08/28 08:32:35;;;;;;;22.10;13.27;;;;;;;15.91;81.54;100891.94;5033649;28;20191;-68
2023/08/28 08:35:05;;;;;;;21.70;14.00;;;;;;;15.93;81.38;100897.97;5033338;28;20184;-68
2023/08/28 08:37:32;;;;;;;16.10;13.63;;;;;;;15.92;81.36;100893.59;5033932;28;20648;-69
2023/08/28 08:39:59;;;;;;;15.73;14.20;;;;;;;15.95;81.45;100894.06;5033284;28;20192;-69
2023/08/28 08:42:25;;;;;;;19.87;12.37;;;;;;;15.98;81.70;100907.19;5033968;28;20666;-69
2023/08/28 08:44:51;;;;;;;14.80;12.13;;;;;;;16.06;81.04;100908.13;5033215;28;20200;-68
2023/08/28 08:47:19;;;;;;;14.00;11.90;;;;;;;16.12;82.32;100910.13;5033164;28;20211;-68
2023/08/28 08:49:53;;;;;;;14.53;11.73;;;;;;;16.26;80.67;100898.50;5033118;28;20203;-68
2023/08/28 08:52:22;;;;;;;12.70;11.30;;;;;;;16.37;80.12;100906.16;5033115;28;20171;-68
2023/08/28 08:54:53;;;;;;;12.30;10.90;;;;;;;16.34;80.78;100909.19;5033359;28;20191;-68
2023/08/28 08:57:32;;;;;;;13.00;11.60;;;;;;;16.32;80.01;100908.56;5033291;28;20243;-68
2023/08/28 08:59:59;;;;;;;18.87;12.93;;;;;;;16.22;79.81;100903.41;5033383;28;20222;-69
2023/08/28 09:02:27;;;;;;;21.37;12.37;;;;;;;16.27;79.84;100911.81;5033278;28;20200;-69
2023/08/28 09:04:55;;;;;;;15.67;10.50;;;;;;;16.22;80.18;100916.06;5033544;28;20176;-69
2023/08/28 09:07:25;;;;;;;28.17;10.30;;;;;;;16.22;80.52;100913.38;5032946;28;20192;-69
2023/08/28 09:09:52;;;;;;;15.23;12.30;;;;;;;16.29;80.52;100917.88;5032921;28;20200;-69
2023/08/28 09:12:19;;;;;;;21.33;14.87;;;;;;;16.53;80.40;100918.63;5033299;28;20188;-68
2023/08/28 09:14:46;;;;;;;18.33;13.50;;;;;;;16.58;79.56;100927.03;5033175;28;20230;-68
2023/08/28 09:17:12;;;;;;;20.43;12.30;;;;;;;16.46;79.41;100923.94;5032843;28;20262;-68
2023/08/28 09:19:39;;;;;;;16.27;11.23;;;;;;;16.48;79.58;100918.34;5032887;28;20208;-69
2023/08/28 09:22:05;;;;;;;10.57;9.83;;;;;;;16.44;79.52;100920.56;5032874;28;20246;-69
2023/08/28 09:24:31;;;;;;;17.33;13.60;;;;;;;16.55;78.89;100922.00;5032811;28;20246;-69
2023/08/28 09:27:00;;;;;;;22.17;14.10;;;;;;;16.58;78.26;100922.47;5032821;28;20180;-69
2023/08/28 09:29:27;;;;;;;21.10;14.63;;;;;;;16.68;76.85;100916.78;5032779;28;20211;-69
2023/08/28 09:32:03;;;;;;;15.57;13.23;;;;;;;16.61;77.38;100913.16;5032817;28;20660;-68
2023/08/28 09:34:40;;;;;;;15.80;14.20;;;;;;;16.66;77.46;100925.09;5033041;28;20176;-68
2023/08/28 09:37:09;;;;;;;17.00;13.10;;;;;;;16.68;77.09;100917.63;5033261;28;20196;-68
2023/08/28 09:39:53;;;;;;;18.60;12.73;;;;;;;16.71;77.34;100908.34;5032921;28;20617;-69
2023/08/28 09:42:23;;;;;;;13.53;12.10;;;;;;;16.77;76.64;100911.09;5035172;28;20188;-69
2023/08/28 09:44:49;;;;;;;17.43;12.40;;;;;;;16.72;76.81;100910.81;5036633;28;20188;-69
2023/08/28 09:47:22;;;;;;;13.83;12.43;;;;;;;16.75;76.83;100899.69;5036593;28;20239;-69
2023/08/28 09:49:49;;;;;;;14.87;13.37;;;;;;;16.91;75.61;100898.63;5036258;28;20212;-69
2023/08/28 09:52:24;;;;;;;16.63;13.87;;;;;;;16.99;74.72;100901.22;5036595;28;20180;-69
2023/08/28 09:55:04;;;;;;;17.87;15.07;;;;;;;17.05;74.71;100892.38;5036849;28;20179;-69
2023/08/28 09:57:31;;;;;;;14.33;13.03;;;;;;;17.12;75.30;100893.28;5036547;28;20203;-69
2023/08/28 09:59:59;;;;;;;14.23;12.97;;;;;;;17.11;74.72;100890.75;5036491;28;20198;-68
2023/08/28 10:02:30;;;;;;;16.43;14.33;;;;;;;17.06;74.43;100882.41;5036019;28;20198;-68
2023/08/28 10:04:58;;;;;;;18.83;13.17;;;;;;;17.17;74.68;100887.31;5036589;28;20180;-68
2023/08/28 10:07:26;;;;;;;16.00;12.90;;;;;;;17.24;75.68;100880.94;5036204;28;20299;-69
2023/08/28 10:09:55;;;;;;;21.37;15.27;;;;;;;17.27;75.98;100883.25;5035947;28;20191;-69
2023/08/28 10:12:22;;;;;;;13.83;12.40;;;;;;;17.27;75.17;100874.34;5035666;28;20695;-69
2023/08/28 10:14:52;;;;;;;18.63;10.93;;;;;;;17.28;76.45;100882.22;5036165;28;20172;-68
2023/08/28 10:17:20;;;;;;;12.57;11.50;;;;;;;17.24;74.31;100874.69;5036067;28;20297;-68
2023/08/28 10:19:54;;;;;;;12.27;11.30;;;;;;;17.27;75.30;100868.94;5035771;28;20212;-68
2023/08/28 10:22:21;;;;;;;12.23;11.23;;;;;;;17.35;74.88;100864.22;5036312;28;20179;-68
2023/08/28 10:24:49;;;;;;;17.43;14.17;;;;;;;17.41;74.07;100869.88;5035889;28;20267;-68
2023/08/28 10:27:16;;;;;;;17.60;14.00;;;;;;;17.43;73.01;100867.84;5035842;28;20188;-68
2023/08/28 10:29:46;;;;;;;13.87;11.87;;;;;;;17.41;70.84;100869.88;5035799;28;20298;-69
2023/08/28 10:32:13;;;;;;;11.67;9.67;;;;;;;17.38;71.82;100862.16;5035521;28;20193;-69
2023/08/28 10:34:42;;;;;;;11.60;10.87;;;;;;;17.37;73.17;100866.72;5035483;28;20245;-68
2023/08/28 10:37:09;;;;;;;12.97;11.23;;;;;;;17.42;72.14;100869.69;5035736;28;20208;-68
2023/08/28 10:39:58;;;;;;;11.57;10.40;;;;;;;17.42;72.25;100868.84;5036139;28;20187;-68
2023/08/28 10:42:27;;;;;;;10.10;8.67;;;;;;;17.44;73.11;100870.31;5035628;28;20587;-68
2023/08/28 10:44:54;;;;;;;7.80;6.87;;;;;;;17.50;71.93;100868.72;5035633;28;20210;-69
2023/08/28 10:47:20;;;;;;;6.10;6.00;;;;;;;17.40;72.12;100876.34;5035440;28;20180;-68
2023/08/28 10:49:47;;;;;;;7.07;6.63;;;;;;;17.36;72.49;100860.47;5035152;28;20222;-68
2023/08/28 10:52:18;;;;;;;7.03;6.53;;;;;;;17.51;72.73;100865.00;5035097;28;20195;-68
2023/08/28 10:54:44;;;;;;;16.10;9.77;;;;;;;17.62;71.62;100862.63;5034542;28;20226;-68
2023/08/28 10:57:21;;;;;;;9.50;8.73;;;;;;;17.77;71.07;100865.28;5034940;28;20552;-68
2023/08/28 10:59:49;;;;;;;8.57;8.17;;;;;;;17.78;70.46;100859.66;5035539;28;20704;-68
2023/08/28 11:02:15;;;;;;;9.10;8.03;;;;;;;17.87;71.92;100862.22;5035144;28;20184;-68
2023/08/28 11:04:42;;;;;;;6.10;5.50;;;;;;;18.04;71.73;100869.84;5034869;28;20307;-69
2023/08/28 11:07:20;;;;;;;5.43;5.33;;;;;;;17.89;70.84;100861.00;5034912;28;20722;-69
2023/08/28 11:09:48;;;;;;;5.20;5.10;;;;;;;17.98;70.91;100854.44;5034808;28;20270;-69
2023/08/28 11:12:15;;;;;;;4.23;4.17;;;;;;;17.98;70.85;100856.28;5034922;28;20718;-69
2023/08/28 11:14:58;;;;;;;3.80;3.70;;;;;;;18.08;70.39;100856.75;5034781;28;20175;-68
2023/08/28 11:17:25;;;;;;;5.30;4.57;;;;;;;18.05;69.44;100859.88;5034832;28;20196;-70
2023/08/28 11:19:52;;;;;;;4.27;4.17;;;;;;;18.07;71.70;100861.38;5034956;28;20194;-68
2023/08/28 11:22:39;;;;;;;3.60;3.60;;;;;;;18.14;69.96;100872.22;5034725;28;20215;-68
2023/08/28 11:25:07;;;;;;;6.10;3.90;;;;;;;18.11;69.34;100865.34;5035000;28;20195;-68